createdAt,value
2023-05-21T00:04:31.652Z,15.55
2023-05-21T00:09:34.955Z,15.60
2023-05-21T00:14:40.935Z,15.56
2023-05-21T00:19:43.647Z,15.54
2023-05-21T00:24:46.501Z,15.48
2023-05-21T00:29:49.219Z,15.41
2023-05-21T00:34:51.981Z,15.37
2023-05-21T00:39:56.331Z,15.30
2023-05-21T00:45:01.002Z,15.25
2023-05-21T00:50:06.938Z,15.23
2023-05-21T00:55:10.504Z,15.00
2023-05-21T01:00:15.006Z,15.10
2023-05-21T01:05:18.306Z,15.07
2023-05-21T01:10:21.060Z,15.00
2023-05-21T01:15:24.097Z,14.92
2023-05-21T01:20:30.680Z,14.82
2023-05-21T01:25:36.450Z,14.71
2023-05-21T01:30:44.187Z,14.62
2023-05-21T01:35:55.986Z,14.51
2023-05-21T01:41:04.448Z,14.41
2023-05-21T01:46:10.936Z,14.35
2023-05-21T01:51:15.010Z,14.33
2023-05-21T01:56:18.182Z,14.32
2023-05-21T02:01:21.209Z,14.30
2023-05-21T02:06:24.250Z,14.34
2023-05-21T02:11:27.111Z,14.33
2023-05-21T02:16:29.926Z,14.35
2023-05-21T02:21:33.004Z,14.32
2023-05-21T02:26:35.985Z,14.44
2023-05-21T02:31:38.655Z,14.49
2023-05-21T02:36:41.977Z,14.56
2023-05-21T02:41:44.746Z,14.71
2023-05-21T02:46:47.747Z,14.79
2023-05-21T02:51:52.583Z,14.99
2023-05-21T02:56:56.061Z,15.08
2023-05-21T03:01:58.715Z,15.29
2023-05-21T03:07:02.466Z,15.45
2023-05-21T03:12:07.101Z,15.63
2023-05-21T03:17:14.214Z,15.84
2023-05-21T03:22:17.029Z,16.09
2023-05-21T03:27:19.730Z,16.40
2023-05-21T03:32:23.956Z,16.62
2023-05-21T03:37:27.929Z,16.88
2023-05-21T03:42:30.770Z,17.01
2023-05-21T03:47:34.305Z,17.15
2023-05-21T03:52:39.676Z,17.28
2023-05-21T03:57:42.980Z,17.40
2023-05-21T04:02:46.105Z,17.58
2023-05-21T04:07:52.882Z,17.74
2023-05-21T04:12:57.215Z,17.89
2023-05-21T04:18:00.802Z,18.08
2023-05-21T04:23:03.965Z,18.16
2023-05-21T04:28:07.564Z,18.36
2023-05-21T04:33:10.385Z,18.67
2023-05-21T04:38:13.179Z,18.88
2023-05-21T04:43:17.636Z,19.00
2023-05-21T04:48:29.732Z,19.21
2023-05-21T04:53:32.489Z,19.43
2023-05-21T04:58:35.315Z,19.71
2023-05-21T05:03:40.928Z,20.04
2023-05-21T05:08:44.887Z,20.19
2023-05-21T05:21:13.687Z,20.48
2023-05-21T05:26:16.568Z,20.81
2023-05-21T05:31:19.385Z,21.06
2023-05-21T05:36:22.890Z,21.31
2023-05-21T05:41:25.613Z,21.49
2023-05-21T05:46:31.414Z,21.55
2023-05-21T05:51:34.413Z,21.56
2023-05-21T05:56:37.217Z,21.77
2023-05-21T06:01:42.791Z,21.99
2023-05-21T06:06:47.738Z,22.14
2023-05-21T06:11:50.781Z,22.30
2023-05-21T06:16:53.965Z,22.35
2023-05-21T06:21:56.869Z,22.52
2023-05-21T06:26:59.805Z,22.61
2023-05-21T06:32:03.944Z,22.78
2023-05-21T06:37:07.568Z,22.99
2023-05-21T06:42:10.342Z,23.10
2023-05-21T06:47:29.532Z,23.30
2023-05-21T06:52:32.119Z,23.32
2023-05-21T06:57:41.335Z,23.41
2023-05-21T07:02:45.190Z,23.54
2023-05-21T07:07:48.035Z,23.74
2023-05-21T07:12:51.528Z,23.93
2023-05-21T07:17:55.768Z,24.09
2023-05-21T07:22:58.477Z,24.18
2023-05-21T07:28:01.390Z,24.46
2023-05-21T07:33:04.472Z,24.51
2023-05-21T07:38:07.367Z,24.44
2023-05-21T07:43:10.298Z,24.57
2023-05-21T07:48:15.970Z,25.06
2023-05-21T07:53:32.682Z,25.32
2023-05-21T07:58:41.501Z,25.40
2023-05-21T08:09:06.547Z,25.26
2023-05-21T08:14:09.351Z,25.68
2023-05-21T08:19:12.376Z,25.88
2023-05-21T08:24:15.819Z,26.20
2023-05-21T08:29:18.458Z,26.22
2023-05-21T08:34:21.459Z,26.42
2023-05-21T08:39:35.624Z,26.63
2023-05-21T08:44:44.848Z,25.89
2023-05-21T08:49:48.462Z,25.66
2023-05-21T08:54:54.675Z,25.85
2023-05-21T08:59:58.855Z,25.97
2023-05-21T09:05:04.851Z,25.94
2023-05-21T09:10:10.408Z,26.51
2023-05-21T09:15:16.126Z,27.16
2023-05-21T09:20:25.397Z,27.22
2023-05-21T09:25:33.828Z,26.55
2023-05-21T09:30:53.771Z,25.98
2023-05-21T09:35:56.903Z,25.44
2023-05-21T09:41:05.795Z,25.53
2023-05-21T09:46:08.510Z,25.25
2023-05-21T09:51:22.934Z,25.00
2023-05-21T09:56:29.359Z,24.64
2023-05-21T10:01:36.422Z,24.63
2023-05-21T10:06:44.072Z,24.82
2023-05-21T10:11:49.986Z,24.58
2023-05-21T10:16:55.100Z,24.63
2023-05-21T10:21:58.419Z,24.46
2023-05-21T10:27:02.904Z,24.51
2023-05-21T10:32:06.514Z,25.55
2023-05-21T10:37:10.304Z,26.40
2023-05-21T10:42:31.186Z,26.48
2023-05-21T10:47:55.118Z,26.70
2023-05-21T10:53:36.956Z,26.19
2023-05-21T10:58:54.526Z,25.88
2023-05-21T11:03:58.053Z,25.53
2023-05-21T11:09:14.329Z,25.55
2023-05-21T11:14:40.365Z,26.67
2023-05-21T11:19:44.121Z,28.11
2023-05-21T11:24:47.779Z,28.84
2023-05-21T11:29:56.200Z,29.59
2023-05-21T11:35:04.212Z,30.40
2023-05-21T11:40:27.535Z,28.84
2023-05-21T11:45:32.909Z,27.71
2023-05-21T11:50:36.012Z,27.43
2023-05-21T11:55:43.923Z,28.91
2023-05-21T12:00:46.517Z,30.14
2023-05-21T12:06:06.033Z,31.21
2023-05-21T12:11:08.742Z,32.03
2023-05-21T12:16:12.286Z,31.21
2023-05-21T12:21:15.554Z,30.07
2023-05-21T12:26:18.253Z,29.01
2023-05-21T12:31:25.104Z,28.60
2023-05-21T12:36:30.696Z,28.45
2023-05-21T12:41:33.379Z,28.54
2023-05-21T12:46:37.392Z,28.17
2023-05-21T12:51:40.625Z,27.76
2023-05-21T12:56:46.856Z,27.65
2023-05-21T13:01:49.600Z,28.19
2023-05-21T13:06:52.331Z,29.28
2023-05-21T13:11:55.007Z,29.75
2023-05-21T13:16:58.316Z,29.52
2023-05-21T13:22:01.111Z,29.16
2023-05-21T13:27:03.952Z,28.81
2023-05-21T13:32:06.739Z,28.68
2023-05-21T13:37:09.381Z,28.78
2023-05-21T13:42:13.937Z,28.76
2023-05-21T13:47:16.950Z,28.42
2023-05-21T13:52:20.352Z,27.95
2023-05-21T13:57:23.001Z,27.40
2023-05-21T14:02:29.151Z,26.96
2023-05-21T14:07:31.761Z,26.48
2023-05-21T14:12:34.971Z,26.10
2023-05-21T14:17:40.653Z,25.83
2023-05-21T14:22:43.424Z,25.63
2023-05-21T14:27:46.124Z,25.49
2023-05-21T14:32:48.730Z,25.24
2023-05-21T14:37:51.406Z,25.11
2023-05-21T14:42:54.464Z,24.94
2023-05-21T14:47:57.165Z,24.81
2023-05-21T14:52:59.677Z,24.68
2023-05-21T14:58:03.680Z,24.59
2023-05-21T15:03:07.003Z,24.39
2023-05-21T15:08:10.069Z,24.18
2023-05-21T15:13:12.766Z,23.95
2023-05-21T15:18:16.414Z,23.65
2023-05-21T15:23:19.319Z,23.44
2023-05-21T15:28:24.343Z,23.23
2023-05-21T15:33:26.872Z,22.95
2023-05-21T15:38:29.523Z,22.80
2023-05-21T15:43:32.563Z,22.68
2023-05-21T15:48:35.114Z,22.53
2023-05-21T15:53:37.664Z,22.26
2023-05-21T15:58:40.336Z,22.20
2023-05-21T16:03:43.013Z,22.11
2023-05-21T16:08:46.176Z,22.01
2023-05-21T16:13:48.787Z,21.88
2023-05-21T16:18:54.576Z,21.74
2023-05-21T16:23:57.084Z,21.67
2023-05-21T16:29:00.294Z,21.53
2023-05-21T16:34:02.891Z,21.46
2023-05-21T16:39:05.688Z,21.31
2023-05-21T16:44:08.432Z,21.23
2023-05-21T16:49:11.017Z,21.17
2023-05-21T16:54:13.940Z,21.06
2023-05-21T16:59:16.710Z,21.02
2023-05-21T17:04:19.331Z,21.02
2023-05-21T17:09:22.001Z,20.93
2023-05-21T17:14:33.924Z,20.92
2023-05-21T17:19:37.744Z,20.95
2023-05-21T17:24:40.549Z,20.96
2023-05-21T17:29:43.091Z,20.95
2023-05-21T17:34:46.075Z,20.97
2023-05-21T17:40:07.327Z,20.95
2023-05-21T17:45:10.586Z,20.95
2023-05-21T17:50:13.314Z,20.89
2023-05-21T17:55:15.934Z,20.86
2023-05-21T18:00:18.884Z,20.79
2023-05-21T18:05:21.577Z,20.72
2023-05-21T18:10:26.649Z,20.70
2023-05-21T18:15:29.210Z,20.71
2023-05-21T18:20:31.804Z,20.68
2023-05-21T18:25:36.054Z,20.59
2023-05-21T18:30:39.005Z,20.49
2023-05-21T18:35:44.450Z,20.47
2023-05-21T18:40:47.366Z,20.45
2023-05-21T18:45:49.991Z,20.43
2023-05-21T18:50:53.147Z,20.44
2023-05-21T18:55:55.836Z,20.45
2023-05-21T19:00:58.408Z,20.40
2023-05-21T19:06:01.128Z,20.28
2023-05-21T19:11:04.095Z,20.23
2023-05-21T19:16:11.303Z,20.17
2023-05-21T19:21:14.156Z,20.16
2023-05-21T19:26:17.117Z,20.11
2023-05-21T19:31:20.868Z,20.05
2023-05-21T19:36:23.598Z,19.97
2023-05-21T19:41:26.761Z,19.96
2023-05-21T19:46:29.493Z,19.95
2023-05-21T19:51:33.426Z,19.91
2023-05-21T19:56:36.563Z,19.84
2023-05-21T20:01:40.536Z,19.73
2023-05-21T20:06:43.239Z,19.62
2023-05-21T20:11:45.834Z,19.50
2023-05-21T20:16:48.792Z,19.40
2023-05-21T20:21:51.441Z,19.31
2023-05-21T20:26:55.190Z,19.12
2023-05-21T20:31:58.209Z,19.17
2023-05-21T20:37:00.811Z,19.11
2023-05-21T20:42:06.643Z,19.10
2023-05-21T20:47:10.565Z,19.05
2023-05-21T20:52:14.519Z,19.03
2023-05-21T20:57:17.320Z,19.00
2023-05-21T21:02:20.973Z,18.99
2023-05-21T21:07:23.712Z,18.96
2023-05-21T21:12:26.988Z,18.89
2023-05-21T21:17:29.824Z,18.86
2023-05-21T21:22:32.504Z,18.82
2023-05-21T21:27:35.317Z,18.73
2023-05-21T21:32:38.152Z,18.81
2023-05-21T21:37:41.056Z,18.76
2023-05-21T21:42:43.736Z,18.70
2023-05-21T21:47:46.393Z,18.71
2023-05-21T21:52:49.249Z,18.70
2023-05-21T21:57:51.940Z,18.67
2023-05-21T22:02:54.713Z,18.72
2023-05-21T22:07:57.430Z,18.72
2023-05-21T22:13:02.895Z,18.67
2023-05-21T22:18:09.870Z,18.62
2023-05-21T22:23:12.688Z,18.56
2023-05-21T22:28:15.281Z,18.49
2023-05-21T22:33:17.996Z,18.47
2023-05-21T22:38:21.108Z,18.44
2023-05-21T22:43:23.812Z,18.39
2023-05-21T22:48:26.742Z,18.31
2023-05-21T22:53:29.345Z,18.21
2023-05-21T22:58:32.155Z,18.15
2023-05-21T23:03:34.636Z,18.09
2023-05-21T23:08:37.261Z,18.06
2023-05-21T23:13:39.861Z,18.02
2023-05-21T23:18:42.364Z,18.00
2023-05-21T23:23:44.915Z,17.97
2023-05-21T23:28:47.502Z,18.00
2023-05-21T23:33:51.542Z,17.93
2023-05-21T23:38:54.136Z,17.83
2023-05-21T23:43:56.769Z,17.78
2023-05-21T23:48:59.873Z,17.75
2023-05-21T23:54:02.562Z,17.72
2023-05-21T23:59:05.217Z,17.71
